createdAt,value
2017-04-19T00:00:02.392Z,73088
2017-04-19T00:00:12.192Z,73085
2017-04-19T00:00:22.280Z,73090
2017-04-19T00:00:32.086Z,73089
2017-04-19T00:00:41.883Z,73085
2017-04-19T00:00:51.970Z,73082
2017-04-19T00:01:01.492Z,73086
2017-04-19T00:01:11.577Z,73085
2017-04-19T00:01:21.666Z,73086
2017-04-19T00:01:31.462Z,73085
2017-04-19T00:01:41.548Z,73089
2017-04-19T00:01:51.638Z,73086
2017-04-19T00:02:01.724Z,73086
2017-04-19T00:02:11.519Z,73087
2017-04-19T00:02:21.592Z,73086
2017-04-19T00:02:31.396Z,73084
2017-04-19T00:02:41.207Z,73089
2017-04-19T00:02:51.012Z,73085
2017-04-19T00:03:01.116Z,73088
2017-04-19T00:03:11.201Z,73090
2017-04-19T00:03:21.494Z,73085
2017-04-19T00:03:31.299Z,73088
2017-04-19T00:03:41.101Z,73086
2017-04-19T00:03:51.185Z,73087
2017-04-19T00:04:00.990Z,73089
2017-04-19T00:04:11.078Z,73085
2017-04-19T00:04:21.166Z,73087
2017-04-19T00:04:31.258Z,73088
2017-04-19T00:04:41.357Z,73086
2017-04-19T00:04:51.446Z,73085
2017-04-19T00:05:01.555Z,73087
2017-04-19T00:05:11.645Z,73086
2017-04-19T00:05:21.734Z,73082
2017-04-19T00:05:31.532Z,73087
2017-04-19T00:05:41.442Z,73090
2017-04-19T00:05:51.536Z,73084
2017-04-19T00:06:01.639Z,73089
2017-04-19T00:06:11.758Z,73085
2017-04-19T00:06:21.553Z,73087
2017-04-19T00:06:31.356Z,73085
2017-04-19T00:06:41.445Z,73087
2017-04-19T00:06:51.546Z,73084
2017-04-19T00:07:01.643Z,73084
2017-04-19T00:07:11.736Z,73085
2017-04-19T00:07:21.534Z,73082
2017-04-19T00:07:31.622Z,73081
2017-04-19T00:07:41.710Z,73082
2017-04-19T00:07:51.580Z,73082
2017-04-19T00:08:01.663Z,73080
2017-04-19T00:08:11.462Z,73078
2017-04-19T00:08:21.590Z,73078
2017-04-19T00:08:31.686Z,73076
2017-04-19T00:08:41.815Z,73077
2017-04-19T00:08:51.909Z,73078
2017-04-19T00:09:02.003Z,73082
2017-04-19T00:09:11.815Z,73080
2017-04-19T00:09:21.617Z,73076
2017-04-19T00:09:31.706Z,73079
2017-04-19T00:09:41.826Z,73078
2017-04-19T00:09:51.913Z,73080
2017-04-19T00:10:01.717Z,73081
2017-04-19T00:10:11.518Z,73081
2017-04-19T00:10:21.610Z,73075
2017-04-19T00:10:31.691Z,73078
2017-04-19T00:10:41.784Z,73077
2017-04-19T00:10:51.870Z,73072
2017-04-19T00:11:01.960Z,73072
2017-04-19T00:11:12.045Z,73073
2017-04-19T00:11:22.137Z,73077
2017-04-19T00:11:31.945Z,73073
2017-04-19T00:11:42.032Z,73074
2017-04-19T00:11:52.124Z,73074
2017-04-19T00:12:02.212Z,73075
2017-04-19T00:12:12.012Z,73074
2017-04-19T00:12:22.183Z,73076
2017-04-19T00:12:32.268Z,73077
2017-04-19T00:12:42.068Z,73075
2017-04-19T00:12:51.877Z,73076
2017-04-19T00:13:01.970Z,73077
2017-04-19T00:13:12.063Z,73078
2017-04-19T00:13:22.153Z,73072
2017-04-19T00:13:32.425Z,73071
2017-04-19T00:13:42.230Z,73070
2017-04-19T00:13:52.034Z,73070
2017-04-19T00:14:02.126Z,73073
2017-04-19T00:14:11.927Z,73074
2017-04-19T00:14:22.018Z,73077
2017-04-19T00:14:31.993Z,73076
2017-04-19T00:14:42.040Z,73076
2017-04-19T00:14:52.128Z,73075
2017-04-19T00:15:02.217Z,73074
2017-04-19T00:15:12.306Z,73073
2017-04-19T00:15:22.400Z,73073
2017-04-19T00:15:31.913Z,73070
2017-04-19T00:15:42.403Z,73073
2017-04-19T00:15:52.206Z,73077
2017-04-19T00:16:02.048Z,73075
2017-04-19T00:16:12.137Z,73075
2017-04-19T00:16:22.223Z,73075
2017-04-19T00:16:32.023Z,73076
2017-04-19T00:16:41.825Z,73078
2017-04-19T00:16:51.914Z,73072
2017-04-19T00:17:01.713Z,73075
2017-04-19T00:17:11.803Z,73073
2017-04-19T00:17:21.607Z,73077
2017-04-19T00:17:30.842Z,73075
2017-04-19T00:17:40.646Z,73074
2017-04-19T00:17:50.739Z,73073
2017-04-19T00:18:00.822Z,73071
2017-04-19T00:18:10.630Z,73071
2017-04-19T00:18:20.719Z,73069
2017-04-19T00:18:30.820Z,73069
2017-04-19T00:18:40.910Z,73069
2017-04-19T00:18:50.999Z,73065
2017-04-19T00:19:00.804Z,73068
2017-04-19T00:19:10.895Z,73068
2017-04-19T00:19:20.993Z,73063
2017-04-19T00:19:31.088Z,73062
2017-04-19T00:19:41.179Z,73065
2017-04-19T00:19:51.274Z,73063
2017-04-19T00:20:01.084Z,73067
2017-04-19T00:20:11.171Z,73065
2017-04-19T00:20:21.260Z,73065
2017-04-19T00:20:31.163Z,73065
2017-04-19T00:20:40.966Z,73060
2017-04-19T00:20:51.054Z,73064
2017-04-19T00:21:01.141Z,73061
2017-04-19T00:21:11.225Z,73060
2017-04-19T00:21:21.319Z,73058
2017-04-19T00:21:31.404Z,73059
2017-04-19T00:21:41.205Z,73056
2017-04-19T00:21:51.293Z,73055
2017-04-19T00:22:01.384Z,73058
2017-04-19T00:22:11.182Z,73056
2017-04-19T00:22:21.272Z,73056
2017-04-19T00:22:31.363Z,73057
2017-04-19T00:22:41.447Z,73056
2017-04-19T00:22:51.531Z,73056
2017-04-19T00:23:01.630Z,73054
2017-04-19T00:23:11.432Z,73053
2017-04-19T00:23:21.520Z,73051
2017-04-19T00:23:31.613Z,73050
2017-04-19T00:23:41.703Z,73047
2017-04-19T00:23:51.800Z,73047
2017-04-19T00:24:01.616Z,73050
2017-04-19T00:24:11.711Z,73051
2017-04-19T00:24:21.518Z,73050
2017-04-19T00:24:31.632Z,73055
2017-04-19T00:24:41.718Z,73053
2017-04-19T00:24:51.529Z,73055
2017-04-19T00:25:01.631Z,73054
2017-04-19T00:25:11.425Z,73054
2017-04-19T00:25:21.517Z,73052
2017-04-19T00:25:31.612Z,73052
2017-04-19T00:25:41.411Z,73049
2017-04-19T00:25:51.505Z,73052
2017-04-19T00:26:01.590Z,73049
2017-04-19T00:26:11.687Z,73051
2017-04-19T00:26:21.778Z,73052
2017-04-19T00:26:31.579Z,73055
2017-04-19T00:26:41.667Z,73052
2017-04-19T00:26:51.761Z,73053
2017-04-19T00:27:02.058Z,73052
2017-04-19T00:27:12.144Z,73052
2017-04-19T00:27:22.239Z,73052
2017-04-19T00:27:32.329Z,73056
2017-04-19T00:27:42.129Z,73059
2017-04-19T00:27:52.216Z,73055
2017-04-19T00:28:02.307Z,73057
2017-04-19T00:28:12.140Z,73057
2017-04-19T00:28:21.944Z,73061
2017-04-19T00:28:31.767Z,73060
2017-04-19T00:28:41.860Z,73062
2017-04-19T00:28:51.989Z,73059
2017-04-19T00:29:01.794Z,73060
2017-04-19T00:29:12.009Z,73057
2017-04-19T00:29:22.101Z,73057
2017-04-19T00:29:32.191Z,73058
2017-04-19T00:29:42.275Z,73060
2017-04-19T00:29:52.077Z,73059
2017-04-19T00:30:02.169Z,73057
2017-04-19T00:30:12.254Z,73055
2017-04-19T00:30:22.342Z,73054
2017-04-19T00:30:32.425Z,73057
2017-04-19T00:30:42.511Z,73059
2017-04-19T00:30:52.598Z,73060
2017-04-19T00:31:02.685Z,73059
2017-04-19T00:31:12.200Z,73051
2017-04-19T00:31:22.285Z,73052
2017-04-19T00:31:32.373Z,73053
2017-04-19T00:31:42.460Z,73052
2017-04-19T00:31:52.548Z,73050
2017-04-19T00:32:02.632Z,73051
2017-04-19T00:32:12.147Z,73053
2017-04-19T00:32:22.238Z,73047
2017-04-19T00:32:32.781Z,73048
2017-04-19T00:32:42.629Z,73047
2017-04-19T00:32:52.724Z,73048
2017-04-19T00:33:02.531Z,73049
2017-04-19T00:33:12.619Z,73052
2017-04-19T00:33:22.706Z,73051
2017-04-19T00:33:32.796Z,73056
2017-04-19T00:33:42.889Z,73055
2017-04-19T00:33:52.971Z,73054
2017-04-19T00:34:02.781Z,73055
2017-04-19T00:34:12.586Z,73054
2017-04-19T00:34:22.677Z,73055
2017-04-19T00:34:32.190Z,73057
2017-04-19T00:34:41.994Z,73060
2017-04-19T00:34:52.081Z,73056
2017-04-19T00:35:02.172Z,73057
2017-04-19T00:35:12.259Z,73057
2017-04-19T00:35:22.348Z,73055
2017-04-19T00:35:32.150Z,73055
2017-04-19T00:35:42.334Z,73049
2017-04-19T00:35:52.417Z,73047
2017-04-19T00:36:02.508Z,73051
2017-04-19T00:36:12.311Z,73048
2017-04-19T00:36:22.398Z,73049
2017-04-19T00:36:32.481Z,73048
2017-04-19T00:36:42.280Z,73048
2017-04-19T00:36:52.075Z,73046
2017-04-19T00:37:02.192Z,73046
2017-04-19T00:37:12.287Z,73042
2017-04-19T00:37:22.379Z,73046
2017-04-19T00:37:32.465Z,73038
2017-04-19T00:37:42.556Z,73043
2017-04-19T00:37:52.659Z,73041
2017-04-19T00:38:02.755Z,73044
2017-04-19T00:38:12.261Z,73041
2017-04-19T00:38:22.348Z,73045
2017-04-19T00:38:32.157Z,73044
2017-04-19T00:38:42.250Z,73043
2017-04-19T00:38:52.046Z,73049
2017-04-19T00:39:01.858Z,73048
2017-04-19T00:39:11.951Z,73051
2017-04-19T00:39:22.309Z,73051
2017-04-19T00:39:32.435Z,73047
2017-04-19T00:39:42.242Z,73042
2017-04-19T00:39:52.043Z,73043
2017-04-19T00:40:01.843Z,73046
2017-04-19T00:40:11.932Z,73047
2017-04-19T00:40:22.015Z,73049
2017-04-19T00:40:32.145Z,73049
2017-04-19T00:40:42.226Z,73047
2017-04-19T00:40:52.355Z,73051
2017-04-19T00:41:02.441Z,73048
2017-04-19T00:41:12.239Z,73052
2017-04-19T00:41:21.749Z,73049
2017-04-19T00:41:32.089Z,73047
2017-04-19T00:41:42.183Z,73046
2017-04-19T00:41:52.313Z,73048
2017-04-19T00:42:01.844Z,73045
2017-04-19T00:42:11.362Z,73046
2017-04-19T00:42:21.450Z,73045
2017-04-19T00:42:31.247Z,73046
2017-04-19T00:42:41.334Z,73048
2017-04-19T00:42:51.132Z,73043
2017-04-19T00:43:01.225Z,73044
2017-04-19T00:43:11.351Z,73047
2017-04-19T00:43:21.454Z,73049
2017-04-19T00:43:31.542Z,73050
2017-04-19T00:43:41.091Z,73049
2017-04-19T00:43:50.892Z,73052
2017-04-19T00:44:00.690Z,73052
2017-04-19T00:44:10.495Z,73055
2017-04-19T00:44:20.584Z,73054
2017-04-19T00:44:30.671Z,73054
2017-04-19T00:44:40.468Z,73051
2017-04-19T00:44:50.558Z,73051
2017-04-19T00:45:00.681Z,73052
2017-04-19T00:45:10.485Z,73050
2017-04-19T00:45:20.577Z,73049
2017-04-19T00:45:30.667Z,73051
2017-04-19T00:45:40.755Z,73050
2017-04-19T00:45:50.267Z,73050
2017-04-19T00:46:00.351Z,73050
2017-04-19T00:46:10.146Z,73054
2017-04-19T00:46:20.285Z,73048
2017-04-19T00:46:30.379Z,73051
2017-04-19T00:46:39.890Z,73046
2017-04-19T00:46:49.975Z,73047
2017-04-19T00:47:00.059Z,73047
2017-04-19T00:47:10.153Z,73047
2017-04-19T00:47:20.243Z,73045
2017-04-19T00:47:30.336Z,73046
2017-04-19T00:47:40.424Z,73045
2017-04-19T00:47:50.508Z,73047
2017-04-19T00:48:00.594Z,73047
2017-04-19T00:48:10.396Z,73049
2017-04-19T00:48:20.527Z,73051
2017-04-19T00:48:30.324Z,73051
2017-04-19T00:48:40.124Z,73052
2017-04-19T00:48:50.220Z,73051
2017-04-19T00:49:00.310Z,73047
2017-04-19T00:49:10.396Z,73050
2017-04-19T00:49:20.493Z,73052
2017-04-19T00:49:30.304Z,73054
2017-04-19T00:49:40.434Z,73058
2017-04-19T00:49:50.527Z,73057
2017-04-19T00:50:00.615Z,73055
2017-04-19T00:50:10.407Z,73056
2017-04-19T00:50:20.496Z,73055
2017-04-19T00:50:30.585Z,73054
2017-04-19T00:50:40.669Z,73058
2017-04-19T00:50:50.756Z,73059
2017-04-19T00:51:00.857Z,73057
2017-04-19T00:51:10.941Z,73058
2017-04-19T00:51:21.070Z,73053
2017-04-19T00:51:31.158Z,73051
2017-04-19T00:51:41.452Z,73055
2017-04-19T00:51:50.971Z,73055
2017-04-19T00:52:01.077Z,73056
2017-04-19T00:52:11.165Z,73057
2017-04-19T00:52:20.963Z,73059
2017-04-19T00:52:31.048Z,73056
2017-04-19T00:52:41.141Z,73060
2017-04-19T00:52:50.945Z,73061
2017-04-19T00:53:00.745Z,73063
2017-04-19T00:53:10.831Z,73061
2017-04-19T00:53:20.933Z,73064
2017-04-19T00:53:31.034Z,73063
2017-04-19T00:53:41.132Z,73063
2017-04-19T00:53:51.229Z,73063
2017-04-19T00:54:01.320Z,73064
2017-04-19T00:54:11.415Z,73061
2017-04-19T00:54:21.513Z,73062
2017-04-19T00:54:31.023Z,73065
2017-04-19T00:54:41.111Z,73060
2017-04-19T00:54:50.911Z,73064
2017-04-19T00:55:00.849Z,73064
2017-04-19T00:55:10.648Z,73065
2017-04-19T00:55:20.740Z,73064
2017-04-19T00:55:30.833Z,73064
2017-04-19T00:55:40.929Z,73064
2017-04-19T00:55:51.014Z,73066
2017-04-19T00:56:00.819Z,73065
2017-04-19T00:56:10.904Z,73067
2017-04-19T00:56:20.987Z,73069
2017-04-19T00:56:30.788Z,73068
2017-04-19T00:56:40.873Z,73073
2017-04-19T00:56:50.962Z,73070
2017-04-19T00:57:00.759Z,73068
2017-04-19T00:57:10.560Z,73069
2017-04-19T00:57:20.712Z,73072
2017-04-19T00:57:30.808Z,73068
2017-04-19T00:57:40.322Z,73065
2017-04-19T00:57:50.419Z,73068
2017-04-19T00:58:00.511Z,73070
2017-04-19T00:58:10.310Z,73068
2017-04-19T00:58:20.405Z,73069
2017-04-19T00:58:30.500Z,73071
2017-04-19T00:58:40.588Z,73074
2017-04-19T00:58:50.687Z,73075
2017-04-19T00:59:00.783Z,73072
2017-04-19T00:59:10.875Z,73075
2017-04-19T00:59:21.003Z,73075
2017-04-19T00:59:31.352Z,73074
2017-04-19T00:59:41.446Z,73075
2017-04-19T00:59:51.258Z,73073
2017-04-19T01:00:01.347Z,73075
2017-04-19T01:00:11.439Z,73072
2017-04-19T01:00:21.532Z,73072
2017-04-19T01:00:31.972Z,73070
2017-04-19T01:00:41.199Z,73070
2017-04-19T01:00:51.323Z,73066
2017-04-19T01:01:01.408Z,73068
2017-04-19T01:01:11.497Z,73068
2017-04-19T01:01:21.304Z,73072
2017-04-19T01:01:31.107Z,73068
2017-04-19T01:01:41.301Z,73073
2017-04-19T01:01:51.398Z,73072
2017-04-19T01:02:01.199Z,73075
2017-04-19T01:02:10.995Z,73077
2017-04-19T01:02:21.080Z,73073
2017-04-19T01:02:31.167Z,73075
2017-04-19T01:02:40.968Z,73077
2017-04-19T01:02:51.056Z,73072
2017-04-19T01:03:00.859Z,73074
2017-04-19T01:03:10.949Z,73077
2017-04-19T01:03:21.034Z,73075
2017-04-19T01:03:31.122Z,73075
2017-04-19T01:03:40.989Z,73073
2017-04-19T01:03:51.084Z,73074
2017-04-19T01:04:01.179Z,73078
2017-04-19T01:04:11.269Z,73074
2017-04-19T01:04:21.362Z,73075
2017-04-19T01:04:31.451Z,73077
2017-04-19T01:04:41.548Z,73074
2017-04-19T01:04:51.348Z,73072
2017-04-19T01:05:01.161Z,73077
2017-04-19T01:05:11.252Z,73076
2017-04-19T01:05:21.338Z,73074
2017-04-19T01:05:31.132Z,73072
2017-04-19T01:05:40.929Z,73074
2017-04-19T01:05:51.016Z,73078
2017-04-19T01:06:01.107Z,73080
2017-04-19T01:06:11.349Z,73082
2017-04-19T01:06:21.439Z,73086
2017-04-19T01:06:31.236Z,73081
2017-04-19T01:06:41.324Z,73083
2017-04-19T01:06:51.120Z,73085
2017-04-19T01:07:01.165Z,73082
2017-04-19T01:07:10.966Z,73084
2017-04-19T01:07:21.346Z,73086
2017-04-19T01:07:31.149Z,73085
2017-04-19T01:07:40.956Z,73082
2017-04-19T01:07:51.049Z,73084
2017-04-19T01:08:01.146Z,73082
2017-04-19T01:08:11.236Z,73086
2017-04-19T01:08:21.332Z,73086
2017-04-19T01:08:31.422Z,73085
2017-04-19T01:08:41.517Z,73086
2017-04-19T01:08:51.607Z,73088
2017-04-19T01:09:01.698Z,73089
2017-04-19T01:09:11.788Z,73085
2017-04-19T01:09:21.876Z,73088
2017-04-19T01:09:31.973Z,73085
2017-04-19T01:09:42.067Z,73083
2017-04-19T01:09:52.179Z,73080
2017-04-19T01:10:02.273Z,73079
2017-04-19T01:10:12.363Z,73081
2017-04-19T01:10:22.451Z,73083
2017-04-19T01:10:32.577Z,73084
2017-04-19T01:10:42.662Z,73083
2017-04-19T01:10:52.752Z,73085
2017-04-19T01:11:02.837Z,73081
2017-04-19T01:11:12.634Z,73081
2017-04-19T01:11:22.718Z,73086
2017-04-19T01:11:32.523Z,73084
2017-04-19T01:11:42.619Z,73087
2017-04-19T01:11:52.729Z,73086
2017-04-19T01:12:02.813Z,73087
2017-04-19T01:12:12.902Z,73082
2017-04-19T01:12:23.002Z,73082
2017-04-19T01:12:32.816Z,73082
2017-04-19T01:12:42.902Z,73083
2017-04-19T01:12:52.702Z,73083
2017-04-19T01:13:02.790Z,73084
2017-04-19T01:13:12.885Z,73085
2017-04-19T01:13:22.977Z,73083
2017-04-19T01:13:32.787Z,73088
2017-04-19T01:13:42.919Z,73089
2017-04-19T01:13:52.442Z,73092
2017-04-19T01:14:02.554Z,73092
2017-04-19T01:14:12.643Z,73088
2017-04-19T01:14:22.738Z,73089
2017-04-19T01:14:32.833Z,73087
2017-04-19T01:14:42.915Z,73088
2017-04-19T01:14:52.740Z,73090
2017-04-19T01:15:02.924Z,73091
2017-04-19T01:15:13.036Z,73089
2017-04-19T01:15:23.123Z,73086
2017-04-19T01:15:32.924Z,73092
2017-04-19T01:15:43.010Z,73090
2017-04-19T01:15:52.816Z,73091
2017-04-19T01:16:02.911Z,73091
2017-04-19T01:16:13.070Z,73088
2017-04-19T01:16:23.159Z,73092
2017-04-19T01:16:33.245Z,73090
2017-04-19T01:16:43.066Z,73092
2017-04-19T01:16:53.154Z,73090
2017-04-19T01:17:03.284Z,73090
2017-04-19T01:17:13.383Z,73094
2017-04-19T01:17:23.483Z,73091
2017-04-19T01:17:33.576Z,73094
2017-04-19T01:17:43.663Z,73092
2017-04-19T01:17:53.469Z,73091
2017-04-19T01:18:03.271Z,73091
2017-04-19T01:18:13.073Z,73090
2017-04-19T01:18:22.879Z,73092
2017-04-19T01:18:33.106Z,73089
2017-04-19T01:18:43.197Z,73089
2017-04-19T01:18:53.285Z,73089
2017-04-19T01:19:02.798Z,73089
2017-04-19T01:19:12.887Z,73092
2017-04-19T01:19:22.980Z,73090
2017-04-19T01:19:33.077Z,73091
2017-04-19T01:19:43.172Z,73092
2017-04-19T01:19:53.258Z,73092
2017-04-19T01:20:02.775Z,73087
2017-04-19T01:20:12.868Z,73086
2017-04-19T01:20:22.954Z,73090
2017-04-19T01:20:33.044Z,73086
2017-04-19T01:20:43.345Z,73085
2017-04-19T01:20:53.439Z,73088
2017-04-19T01:21:03.530Z,73088
2017-04-19T01:21:13.626Z,73087
2017-04-19T01:21:23.716Z,73090
2017-04-19T01:21:33.804Z,73093
2017-04-19T01:21:43.773Z,73090
2017-04-19T01:21:53.571Z,73094
2017-04-19T01:22:03.658Z,73091
2017-04-19T01:22:13.745Z,73094
2017-04-19T01:22:23.829Z,73089
2017-04-19T01:22:33.919Z,73090
2017-04-19T01:22:44.005Z,73093
2017-04-19T01:22:53.519Z,73090
2017-04-19T01:23:03.609Z,73093
2017-04-19T01:23:13.743Z,73091
2017-04-19T01:23:23.545Z,73090
2017-04-19T01:23:33.629Z,73092
2017-04-19T01:23:43.717Z,73089
2017-04-19T01:23:53.803Z,73088
2017-04-19T01:24:03.653Z,73087
2017-04-19T01:24:13.737Z,73092
2017-04-19T01:24:23.825Z,73088
2017-04-19T01:24:33.918Z,73088
2017-04-19T01:24:44.007Z,73090
2017-04-19T01:24:54.098Z,73088
2017-04-19T01:25:04.192Z,73089
2017-04-19T01:25:14.287Z,73089
2017-04-19T01:25:24.089Z,73087
2017-04-19T01:25:34.178Z,73089
2017-04-19T01:25:44.268Z,73088
2017-04-19T01:25:54.360Z,73091
2017-04-19T01:26:04.454Z,73088
2017-04-19T01:26:14.638Z,73092
2017-04-19T01:26:24.727Z,73088
2017-04-19T01:26:34.532Z,73091
2017-04-19T01:26:44.335Z,73089
2017-04-19T01:26:54.423Z,73090
2017-04-19T01:27:04.507Z,73092
2017-04-19T01:27:14.867Z,73088
2017-04-19T01:27:25.150Z,73087
2017-04-19T01:27:34.951Z,73087
2017-04-19T01:27:44.749Z,73087
2017-04-19T01:27:54.555Z,73089
2017-04-19T01:28:04.647Z,73086
2017-04-19T01:28:14.448Z,73090
2017-04-19T01:28:24.252Z,73087
2017-04-19T01:28:34.362Z,73084
2017-04-19T01:28:44.448Z,73091
2017-04-19T01:28:54.537Z,73087
2017-04-19T01:29:04.631Z,73093
2017-04-19T01:29:14.723Z,73089
2017-04-19T01:29:24.809Z,73086
2017-04-19T01:29:34.894Z,73091
2017-04-19T01:29:44.695Z,73092
2017-04-19T01:29:54.499Z,73092
2017-04-19T01:30:04.303Z,73093
2017-04-19T01:30:14.101Z,73092
2017-04-19T01:30:24.188Z,73091
2017-04-19T01:30:34.274Z,73091
2017-04-19T01:30:44.273Z,73094
2017-04-19T01:30:54.356Z,73095
2017-04-19T01:31:04.447Z,73092
2017-04-19T01:31:14.532Z,73092
2017-04-19T01:31:24.623Z,73090
2017-04-19T01:31:34.710Z,73092
2017-04-19T01:31:44.913Z,73092
2017-04-19T01:31:54.711Z,73092
2017-04-19T01:32:04.798Z,73093
2017-04-19T01:32:14.317Z,73090
2017-04-19T01:32:24.119Z,73087
2017-04-19T01:32:33.638Z,73091
2017-04-19T01:32:43.158Z,73093
2017-04-19T01:32:53.338Z,73092
2017-04-19T01:33:02.858Z,73093
2017-04-19T01:33:12.945Z,73092
2017-04-19T01:33:22.752Z,73092
2017-04-19T01:33:32.307Z,73093
2017-04-19T01:33:42.399Z,73092
2017-04-19T01:33:52.505Z,73092
2017-04-19T01:34:02.860Z,73094
2017-04-19T01:34:12.947Z,73092
2017-04-19T01:34:22.462Z,73090
2017-04-19T01:34:32.558Z,73092
2017-04-19T01:34:42.642Z,73091
2017-04-19T01:34:52.730Z,73090
2017-04-19T01:35:02.825Z,73092
2017-04-19T01:35:13.016Z,73092
2017-04-19T01:35:23.102Z,73091
2017-04-19T01:35:33.198Z,73091
2017-04-19T01:35:43.286Z,73089
2017-04-19T01:35:53.372Z,73093
2017-04-19T01:36:02.886Z,73093
2017-04-19T01:36:12.707Z,73093
2017-04-19T01:36:22.794Z,73094
2017-04-19T01:36:32.885Z,73093
2017-04-19T01:36:42.972Z,73091
2017-04-19T01:36:53.061Z,73091
2017-04-19T01:37:02.862Z,73091
2017-04-19T01:37:12.954Z,73092
2017-04-19T01:37:23.042Z,73090
2017-04-19T01:37:33.135Z,73089
2017-04-19T01:37:43.225Z,73091
2017-04-19T01:37:52.975Z,73092
2017-04-19T01:38:02.768Z,73096
2017-04-19T01:38:12.573Z,73090
2017-04-19T01:38:22.670Z,73090
2017-04-19T01:38:32.872Z,73092
2017-04-19T01:38:42.957Z,73091
2017-04-19T01:38:53.056Z,73091
2017-04-19T01:39:02.854Z,73092
2017-04-19T01:39:12.937Z,73091
2017-04-19T01:39:22.741Z,73090
2017-04-19T01:39:32.826Z,73090
2017-04-19T01:39:42.911Z,73091
2017-04-19T01:39:52.712Z,73092
2017-04-19T01:40:02.520Z,73093
2017-04-19T01:40:12.046Z,73092
2017-04-19T01:40:22.131Z,73088
2017-04-19T01:40:32.215Z,73090
2017-04-19T01:40:42.334Z,73093
2017-04-19T01:40:52.424Z,73093
2017-04-19T01:41:02.044Z,73092
2017-04-19T01:41:12.132Z,73092
2017-04-19T01:41:22.266Z,73094
2017-04-19T01:41:32.071Z,73094
2017-04-19T01:41:41.880Z,73090
2017-04-19T01:41:51.969Z,73093
2017-04-19T01:42:02.064Z,73095
2017-04-19T01:42:12.154Z,73093
2017-04-19T01:42:22.238Z,73093
2017-04-19T01:42:32.037Z,73095
2017-04-19T01:42:42.126Z,73091
2017-04-19T01:42:52.395Z,73093
2017-04-19T01:43:02.490Z,73092
2017-04-19T01:43:12.579Z,73091
2017-04-19T01:43:22.670Z,73090
2017-04-19T01:43:32.758Z,73087
2017-04-19T01:43:42.559Z,73092
2017-04-19T01:43:52.644Z,73093
2017-04-19T01:44:02.558Z,73093
2017-04-19T01:44:12.355Z,73091
2017-04-19T01:44:22.453Z,73091
2017-04-19T01:44:32.541Z,73091
2017-04-19T01:44:42.633Z,73092
2017-04-19T01:44:52.720Z,73087
2017-04-19T01:45:02.822Z,73087
2017-04-19T01:45:12.916Z,73088
2017-04-19T01:45:23.002Z,73086
2017-04-19T01:45:33.086Z,73088
2017-04-19T01:45:43.177Z,73089
2017-04-19T01:45:52.971Z,73088
2017-04-19T01:46:02.772Z,73091
2017-04-19T01:46:12.923Z,73089
2017-04-19T01:46:22.927Z,73089
2017-04-19T01:46:33.013Z,73092
2017-04-19T01:46:42.824Z,73091
2017-04-19T01:46:52.912Z,73093
2017-04-19T01:47:03.008Z,73092
2017-04-19T01:47:13.095Z,73091
2017-04-19T01:47:23.206Z,73094
2017-04-19T01:47:33.373Z,73094
2017-04-19T01:47:43.461Z,73092
2017-04-19T01:47:53.551Z,73093
2017-04-19T01:48:03.646Z,73094
2017-04-19T01:48:13.733Z,73093
2017-04-19T01:48:23.823Z,73092
2017-04-19T01:48:33.916Z,73091
2017-04-19T01:48:43.726Z,73097
2017-04-19T01:48:53.822Z,73097
2017-04-19T01:49:03.925Z,73094
2017-04-19T01:49:14.011Z,73097
2017-04-19T01:49:24.099Z,73098
2017-04-19T01:49:34.184Z,73098
2017-04-19T01:49:43.992Z,73098
2017-04-19T01:49:54.082Z,73097
2017-04-19T01:50:04.177Z,73092
2017-04-19T01:50:13.974Z,73094
2017-04-19T01:50:24.060Z,73094
2017-04-19T01:50:34.149Z,73091
2017-04-19T01:50:44.057Z,73093
2017-04-19T01:50:54.305Z,73091
2017-04-19T01:51:04.392Z,73097
2017-04-19T01:51:14.480Z,73094
2017-04-19T01:51:24.283Z,73096
2017-04-19T01:51:34.373Z,73094
2017-04-19T01:51:43.881Z,73092
2017-04-19T01:51:53.698Z,73093
2017-04-19T01:52:03.786Z,73090
2017-04-19T01:52:13.299Z,73095
2017-04-19T01:52:23.388Z,73093
2017-04-19T01:52:33.473Z,73092
2017-04-19T01:52:43.572Z,73090
2017-04-19T01:52:53.669Z,73094
2017-04-19T01:53:03.187Z,73091
2017-04-19T01:53:13.283Z,73093
2017-04-19T01:53:23.369Z,73090
2017-04-19T01:53:33.170Z,73096
2017-04-19T01:53:43.257Z,73091
2017-04-19T01:53:53.060Z,73093
2017-04-19T01:54:02.859Z,73092
2017-04-19T01:54:13.002Z,73095
2017-04-19T01:54:23.089Z,73091
2017-04-19T01:54:33.179Z,73093
2017-04-19T01:54:43.270Z,73094
2017-04-19T01:54:53.358Z,73093
2017-04-19T01:55:03.160Z,73091
2017-04-19T01:55:12.968Z,73090
2017-04-19T01:55:23.155Z,73092
2017-04-19T01:55:33.236Z,73092
2017-04-19T01:55:42.749Z,73094
2017-04-19T01:55:52.842Z,73090
2017-04-19T01:56:02.928Z,73094
2017-04-19T01:56:13.014Z,73094
2017-04-19T01:56:23.266Z,73091
2017-04-19T01:56:33.356Z,73097
2017-04-19T01:56:43.443Z,73094
2017-04-19T01:56:53.524Z,73095
2017-04-19T01:57:03.613Z,73089
2017-04-19T01:57:13.412Z,73092
2017-04-19T01:57:23.505Z,73094
2017-04-19T01:57:33.649Z,73096
2017-04-19T01:57:43.740Z,73095
2017-04-19T01:57:53.545Z,73094
2017-04-19T01:58:03.634Z,73093
2017-04-19T01:58:13.718Z,73095
2017-04-19T01:58:23.805Z,73088
2017-04-19T01:58:33.601Z,73095
2017-04-19T01:58:43.797Z,73091
2017-04-19T01:58:53.887Z,73091
2017-04-19T01:59:03.980Z,73093
2017-04-19T01:59:14.070Z,73089
2017-04-19T01:59:24.161Z,73093
2017-04-19T01:59:34.244Z,73093
2017-04-19T01:59:44.335Z,73091
2017-04-19T01:59:54.426Z,73095
2017-04-19T02:00:04.540Z,73095
2017-04-19T02:00:14.627Z,73091
2017-04-19T02:00:24.428Z,73091
2017-04-19T02:00:34.513Z,73092
2017-04-19T02:00:44.601Z,73094
2017-04-19T02:00:54.459Z,73092
2017-04-19T02:01:04.543Z,73090
2017-04-19T02:01:14.640Z,73091
2017-04-19T02:01:24.733Z,73089
2017-04-19T02:01:34.819Z,73091
2017-04-19T02:01:44.903Z,73093
2017-04-19T02:01:54.990Z,73091
2017-04-19T02:02:05.269Z,73092
2017-04-19T02:02:15.356Z,73092
2017-04-19T02:02:25.442Z,73092
2017-04-19T02:02:35.265Z,73093
2017-04-19T02:02:44.784Z,73093
2017-04-19T02:02:54.877Z,73095
2017-04-19T02:03:04.984Z,73095
2017-04-19T02:03:15.097Z,73094
2017-04-19T02:03:25.185Z,73093
2017-04-19T02:03:35.270Z,73088
2017-04-19T02:03:45.397Z,73088
2017-04-19T02:03:55.492Z,73090
2017-04-19T02:04:05.289Z,73088
2017-04-19T02:04:15.374Z,73091
2017-04-19T02:04:25.466Z,73086
2017-04-19T02:04:35.545Z,73087
2017-04-19T02:04:45.633Z,73087
2017-04-19T02:04:55.722Z,73088
2017-04-19T02:05:05.809Z,73086
2017-04-19T02:05:15.899Z,73090
2017-04-19T02:05:25.998Z,73091
2017-04-19T02:05:36.085Z,73090
2017-04-19T02:05:45.887Z,73089
2017-04-19T02:05:55.684Z,73091
2017-04-19T02:06:05.198Z,73092
2017-04-19T02:06:14.710Z,73088
2017-04-19T02:06:24.799Z,73092
2017-04-19T02:06:34.881Z,73093
2017-04-19T02:06:44.974Z,73090
2017-04-19T02:06:55.068Z,73092
2017-04-19T02:07:05.155Z,73090
2017-04-19T02:07:15.257Z,73094
2017-04-19T02:07:25.343Z,73089
2017-04-19T02:07:35.430Z,73088
2017-04-19T02:07:45.241Z,73088
2017-04-19T02:07:55.051Z,73092
2017-04-19T02:08:05.132Z,73089
2017-04-19T02:08:15.219Z,73089
2017-04-19T02:08:25.311Z,73091
2017-04-19T02:08:35.404Z,73091
2017-04-19T02:08:45.499Z,73087